Time;durP1;ratioP1;P1;durP2;ratioP2;P2;SDS_P1;SDS_P2;PMS_P1;PMS_P2;Temp;Humidity;BMP_temperature;BMP_pressure;BME280_temperature;BME280_humidity;BME280_pressure;Samples;Min_cycle;Max_cycle;Signal;HPM_P1;HPM_P2
2023/02/28 00:00:47;;;;;;;61.83;40.33;;;10.00;99.90;;;;;;5033254;28;20048;-75
2023/02/28 00:03:51;;;;;;;61.17;40.65;;;10.20;99.90;;;;;;5033178;28;20508;-74
2023/02/28 00:06:55;;;;;;;60.47;40.78;;;10.20;99.90;;;;;;5033101;28;20048;-75
2023/02/28 00:10:01;;;;;;;61.47;39.95;;;10.30;99.90;;;;;;5033184;28;20109;-75
2023/02/28 00:13:07;;;;;;;65.80;40.60;;;10.10;99.90;;;;;;5033053;28;20500;-75
2023/02/28 00:16:13;;;;;;;64.40;41.08;;;10.00;99.90;;;;;;5033057;28;20152;-74
2023/02/28 00:19:17;;;;;;;63.28;41.10;;;9.90;99.90;;;;;;5032551;28;20052;-74
2023/02/28 00:22:21;;;;;;;59.47;41.78;;;10.10;99.90;;;;;;5032514;28;20468;-75
2023/02/28 00:25:26;;;;;;;57.65;42.85;;;;;;;;;;5032889;28;20064;-75
2023/02/28 00:28:29;;;;;;;63.00;42.13;;;10.00;99.90;;;;;;5032540;28;20036;-75
2023/02/28 00:31:36;;;;;;;59.75;41.47;;;10.30;99.90;;;;;;5032643;28;20398;-75
2023/02/28 00:34:41;;;;;;;59.10;41.03;;;10.40;99.90;;;;;;5032550;28;20049;-75
2023/02/28 00:37:47;;;;;;;59.83;40.78;;;9.90;99.90;;;;;;5032869;28;20053;-75
2023/02/28 00:40:51;;;;;;;65.20;40.15;;;;;;;;;;5032799;28;20060;-73
2023/02/28 00:43:55;;;;;;;59.25;39.22;;;9.90;99.90;;;;;;5032235;28;20112;-74
2023/02/28 00:47:00;;;;;;;58.92;39.78;;;;;;;;;;5031810;28;20052;-75
2023/02/28 00:50:07;;;;;;;55.55;38.70;;;10.40;99.90;;;;;;5031698;28;20658;-74
2023/02/28 00:53:11;;;;;;;50.95;35.92;;;10.10;99.90;;;;;;5032629;28;20511;-75
2023/02/28 00:56:15;;;;;;;46.15;31.33;;;10.00;99.90;;;;;;5032212;28;20488;-75
2023/02/28 00:59:19;;;;;;;44.50;30.27;;;10.00;99.90;;;;;;5031407;28;20060;-75
2023/02/28 01:02:23;;;;;;;37.42;25.40;;;9.50;99.90;;;;;;5031245;28;20036;-74
2023/02/28 01:05:30;;;;;;;35.95;25.33;;;10.30;99.90;;;;;;5031440;28;20048;-74
2023/02/28 01:08:34;;;;;;;33.78;21.83;;;10.40;99.90;;;;;;5031115;28;20044;-74
2023/02/28 01:11:41;;;;;;;28.27;16.90;;;9.70;99.90;;;;;;5032006;28;20048;-75
2023/02/28 01:14:45;;;;;;;25.08;16.08;;;;;;;;;;5031634;28;20045;-75
2023/02/28 01:17:49;;;;;;;21.65;13.82;;;10.90;99.90;;;;;;5032082;28;20060;-75
2023/02/28 01:20:53;;;;;;;20.98;15.27;;;10.40;99.90;;;;;;5031825;28;20060;-75
2023/02/28 01:23:57;;;;;;;32.30;22.88;;;10.60;99.40;;;;;;5031536;28;20064;-75
2023/02/28 01:27:02;;;;;;;33.47;19.30;;;9.90;99.30;;;;;;5031621;28;20056;-73
2023/02/28 01:30:08;;;;;;;27.08;20.15;;;10.60;99.40;;;;;;5031649;28;20044;-75
2023/02/28 01:33:13;;;;;;;31.58;21.15;;;10.60;99.40;;;;;;5031525;28;20393;-75
2023/02/28 01:36:20;;;;;;;27.95;20.33;;;10.50;99.40;;;;;;5030906;28;20048;-76
2023/02/28 01:39:24;;;;;;;28.73;18.40;;;10.40;99.80;;;;;;5031298;28;20045;-75
2023/02/28 01:42:28;;;;;;;27.58;19.02;;;10.50;99.90;;;;;;5031495;28;20040;-75
2023/02/28 01:45:37;;;;;;;27.88;19.05;;;10.40;99.60;;;;;;5031118;28;20052;-76
2023/02/28 01:48:51;;;;;;;31.35;19.20;;;9.90;99.70;;;;;;5031685;28;20528;-75
2023/02/28 01:51:56;;;;;;;26.13;18.50;;;;;;;;;;5031019;28;20532;-75
2023/02/28 01:55:06;;;;;;;27.90;19.08;;;10.10;99.90;;;;;;5030408;28;20040;-75
2023/02/28 01:58:11;;;;;;;27.50;19.70;;;10.00;99.90;;;;;;5031024;28;20048;-75
2023/02/28 02:01:21;;;;;;;30.92;19.85;;;10.00;99.90;;;;;;5041888;28;20501;-75
2023/02/28 02:04:32;;;;;;;27.98;18.85;;;9.90;99.90;;;;;;5030602;28;20048;-75
2023/02/28 02:07:39;;;;;;;29.85;21.35;;;8.90;99.90;;;;;;5030469;28;20040;-75
2023/02/28 02:10:55;;;;;;;29.63;20.55;;;9.40;99.90;;;;;;5031112;28;20432;-76
2023/02/28 02:13:59;;;;;;;31.55;20.63;;;9.80;99.90;;;;;;5030595;28;20493;-75
2023/02/28 02:17:28;;;;;;;28.30;20.30;;;9.70;99.90;;;;;;5031056;28;20060;-73
2023/02/28 02:21:19;;;;;;;30.83;21.15;;;9.70;99.90;;;;;;5019120;28;20056;-74
2023/02/28 02:24:41;;;;;;;29.95;20.67;;;9.50;99.90;;;;;;5035126;28;20055;-74
2023/02/28 02:28:15;;;;;;;36.25;20.80;;;9.90;99.90;;;;;;5034961;28;20045;-75
2023/02/28 02:31:28;;;;;;;32.22;20.17;;;8.90;99.90;;;;;;5035208;28;20048;-74
2023/02/28 02:34:51;;;;;;;31.45;18.60;;;8.40;99.90;;;;;;5034060;28;20048;-74
2023/02/28 02:38:34;;;;;;;28.58;19.23;;;9.50;99.90;;;;;;5035002;28;20596;-74
2023/02/28 02:41:50;;;;;;;25.45;17.42;;;9.50;99.90;;;;;;5034795;28;20414;-74
2023/02/28 02:45:12;;;;;;;26.42;17.58;;;9.50;99.90;;;;;;5034207;28;20036;-75
2023/02/28 02:48:21;;;;;;;18.75;13.38;;;9.20;99.90;;;;;;5035144;28;20044;-75
2023/02/28 02:51:30;;;;;;;12.43;7.83;;;9.70;99.90;;;;;;5034048;28;20409;-75
2023/02/28 02:54:38;;;;;;;11.68;6.75;;;9.80;99.90;;;;;;5034092;28;20283;-74
2023/02/28 02:57:59;;;;;;;8.18;4.60;;;9.70;99.60;;;;;;5033737;28;20048;-74
2023/02/28 03:01:05;;;;;;;5.32;2.90;;;;;;;;;;5034615;28;20045;-75
2023/02/28 03:04:15;;;;;;;6.55;3.40;;;10.60;99.30;;;;;;5033575;28;20029;-75
2023/02/28 03:07:19;;;;;;;7.05;3.40;;;10.20;98.90;;;;;;5033403;28;20041;-74
2023/02/28 03:10:27;;;;;;;9.05;3.95;;;10.50;99.10;;;;;;5034106;28;20041;-74
2023/02/28 03:14:02;;;;;;;9.05;4.00;;;10.20;99.30;;;;;;5033346;28;20064;-74
2023/02/28 03:17:16;;;;;;;6.85;3.92;;;9.30;99.20;;;;;;5033435;28;20047;-74
2023/02/28 03:20:32;;;;;;;10.95;4.40;;;10.50;99.60;;;;;;5032970;28;20041;-74
2023/02/28 03:23:48;;;;;;;8.35;5.32;;;10.20;99.70;;;;;;5033790;28;20128;-74
2023/02/28 03:27:03;;;;;;;12.65;5.20;;;10.20;99.70;;;;;;5034081;28;20040;-74
2023/02/28 03:30:27;;;;;;;8.65;5.68;;;10.30;99.90;;;;;;5033627;28;20048;-73
2023/02/28 03:33:43;;;;;;;10.68;6.20;;;10.20;99.90;;;;;;5033818;28;20064;-73
2023/02/28 03:36:55;;;;;;;10.93;6.47;;;10.40;99.90;;;;;;5033743;28;20037;-75
2023/02/28 03:40:16;;;;;;;13.02;6.25;;;10.10;99.90;;;;;;5033461;28;20112;-75
2023/02/28 03:43:31;;;;;;;7.27;5.30;;;10.10;99.90;;;;;;5033892;28;20052;-74
2023/02/28 03:46:40;;;;;;;6.32;4.65;;;10.20;99.90;;;;;;5033440;28;20049;-75
2023/02/28 03:49:53;;;;;;;13.55;5.35;;;9.90;99.70;;;;;;5033445;28;20053;-74
2023/02/28 03:53:06;;;;;;;6.97;4.57;;;10.00;99.60;;;;;;5033172;28;20512;-74
2023/02/28 03:56:29;;;;;;;6.65;3.58;;;9.90;99.50;;;;;;5032924;28;20044;-73
2023/02/28 03:59:47;;;;;;;6.45;3.55;;;10.00;99.30;;;;;;5033207;28;20390;-73
2023/02/28 04:02:52;;;;;;;9.30;3.20;;;10.00;99.10;;;;;;5033733;28;20528;-74
2023/02/28 04:05:58;;;;;;;6.25;4.18;;;10.10;98.90;;;;;;5033198;28;20060;-74
2023/02/28 04:09:04;;;;;;;8.25;4.50;;;10.00;98.80;;;;;;5033111;28;20518;-74
2023/02/28 04:12:08;;;;;;;7.10;4.32;;;10.10;99.00;;;;;;5033440;28;20052;-74
2023/02/28 04:15:12;;;;;;;6.00;3.90;;;9.80;99.20;;;;;;5033106;28;20040;-74
2023/02/28 04:18:16;;;;;;;7.63;4.00;;;9.70;99.30;;;;;;5033232;28;20064;-74
2023/02/28 04:21:20;;;;;;;9.75;5.00;;;9.80;99.50;;;;;;5033127;28;20045;-75
2023/02/28 04:24:27;;;;;;;14.52;4.57;;;9.80;99.70;;;;;;5032987;28;20509;-75
2023/02/28 04:27:31;;;;;;;7.13;4.00;;;9.70;99.80;;;;;;5033018;28;20040;-74
2023/02/28 04:30:35;;;;;;;4.85;3.25;;;10.30;99.90;;;;;;5032919;28;20041;-74
2023/02/28 04:33:39;;;;;;;6.57;2.90;;;9.80;99.80;;;;;;5032883;28;20064;-74
2023/02/28 04:36:42;;;;;;;4.28;2.85;;;9.80;99.60;;;;;;5032027;28;20504;-74
2023/02/28 04:39:47;;;;;;;5.13;2.80;;;;;;;;;;5032385;28;20578;-75
2023/02/28 04:42:51;;;;;;;5.07;2.50;;;9.80;99.10;;;;;;5032903;28;20037;-74
2023/02/28 04:45:56;;;;;;;7.90;2.60;;;9.80;98.90;;;;;;5032460;28;20033;-75
2023/02/28 04:49:00;;;;;;;5.38;2.40;;;9.80;99.00;;;;;;5033116;28;20041;-74
2023/02/28 04:52:04;;;;;;;4.50;1.80;;;9.80;98.90;;;;;;5032135;28;20037;-75
2023/02/28 04:55:08;;;;;;;8.15;1.90;;;9.60;98.50;;;;;;5032810;28;20041;-76
2023/02/28 04:58:13;;;;;;;4.95;1.80;;;10.80;98.70;;;;;;5032616;28;20033;-75
2023/02/28 05:01:26;;;;;;;7.25;2.67;;;9.70;97.90;;;;;;5031920;28;20052;-75
2023/02/28 05:04:33;;;;;;;5.28;2.58;;;10.50;97.90;;;;;;5032464;28;20042;-75
2023/02/28 05:07:38;;;;;;;3.05;1.58;;;10.70;97.80;;;;;;5033119;28;20048;-75
2023/02/28 05:10:41;;;;;;;5.93;2.00;;;10.60;97.60;;;;;;5032806;28;20049;-75
2023/02/28 05:13:46;;;;;;;6.05;1.92;;;11.70;97.90;;;;;;5032365;28;20489;-75
2023/02/28 05:16:51;;;;;;;4.70;1.67;;;10.60;97.70;;;;;;5032297;28;20052;-74
2023/02/28 05:19:55;;;;;;;4.85;1.88;;;10.00;97.40;;;;;;5031661;28;20065;-74
2023/02/28 05:22:59;;;;;;;6.75;1.83;;;10.40;97.60;;;;;;5031956;28;20072;-74
2023/02/28 05:26:04;;;;;;;4.43;2.10;;;10.40;97.50;;;;;;5032135;28;20194;-74
2023/02/28 05:29:09;;;;;;;8.57;1.95;;;10.50;97.50;;;;;;5032208;28;20044;-75
2023/02/28 05:32:14;;;;;;;3.42;2.22;;;10.60;97.60;;;;;;5032236;28;20049;-76
2023/02/28 05:35:18;;;;;;;6.50;1.83;;;10.60;97.70;;;;;;5031059;28;20060;-73
2023/02/28 05:38:22;;;;;;;8.02;1.70;;;10.60;97.70;;;;;;5030662;28;20409;-74
2023/02/28 05:41:26;;;;;;;5.82;1.60;;;10.60;97.70;;;;;;5031057;28;20044;-75
2023/02/28 05:44:30;;;;;;;7.43;1.70;;;;;;;;;;5031471;28;20512;-74
2023/02/28 05:47:34;;;;;;;3.65;1.90;;;10.70;97.30;;;;;;5032675;28;20049;-74
2023/02/28 05:50:39;;;;;;;8.63;2.05;;;9.50;96.80;;;;;;5030872;28;20061;-74
2023/02/28 05:53:42;;;;;;;7.65;2.80;;;10.70;97.10;;;;;;5032072;28;20034;-75
2023/02/28 05:56:46;;;;;;;5.80;2.00;;;10.70;97.30;;;;;;5030426;28;20413;-75
2023/02/28 05:59:51;;;;;;;8.18;2.30;;;10.70;96.90;;;;;;5031351;28;20143;-76
2023/02/28 06:02:57;;;;;;;33.85;4.13;;;;;;;;;;5031991;28;20389;-76
2023/02/28 06:06:01;;;;;;;4.03;1.90;;;10.90;96.80;;;;;;5032297;28;20033;-76
2023/02/28 06:09:06;;;;;;;6.22;2.30;;;11.00;96.80;;;;;;5053768;28;20044;-75
2023/02/28 06:12:10;;;;;;;8.60;2.20;;;11.00;96.70;;;;;;5031931;28;20527;-75
2023/02/28 06:15:15;;;;;;;10.40;2.55;;;11.20;96.70;;;;;;5032435;28;20052;-75
2023/02/28 06:18:19;;;;;;;9.48;2.55;;;15.60;97.10;;;;;;5031742;28;20052;-74
2023/02/28 06:21:23;;;;;;;5.35;2.42;;;;;;;;;;5031060;28;20080;-75
2023/02/28 06:24:28;;;;;;;8.65;2.05;;;12.90;94.00;;;;;;5030221;28;20042;-75
2023/02/28 06:27:33;;;;;;;7.93;2.63;;;;;;;;;;5031446;28;20100;-60
2023/02/28 06:30:38;;;;;;;6.35;1.75;;;14.00;92.50;;;;;;5030789;28;20029;-61
2023/02/28 06:33:43;;;;;;;8.63;2.30;;;13.90;92.20;;;;;;5030560;28;20040;-59
2023/02/28 06:36:50;;;;;;;12.35;2.38;;;14.20;91.90;;;;;;5030686;28;20045;-60
2023/02/28 06:39:55;;;;;;;6.43;2.30;;;14.30;92.00;;;;;;5030218;28;20481;-60
2023/02/28 06:42:59;;;;;;;5.88;2.47;;;14.60;91.50;;;;;;5030698;28;20040;-59
2023/02/28 06:46:05;;;;;;;4.63;2.30;;;15.00;90.30;;;;;;5030554;28;20052;-61
2023/02/28 06:49:09;;;;;;;8.45;2.42;;;14.80;90.00;;;;;;5030423;28;20045;-61
2023/02/28 06:52:14;;;;;;;12.40;3.40;;;15.20;90.60;;;;;;5030258;28;20060;-62
2023/02/28 06:55:18;;;;;;;9.43;4.07;;;15.20;90.10;;;;;;5029481;28;20048;-60
2023/02/28 06:58:23;;;;;;;13.13;3.50;;;14.80;90.00;;;;;;5029341;28;20053;-60
2023/02/28 07:01:27;;;;;;;20.23;4.82;;;11.50;90.30;;;;;;5030354;28;20051;-61
2023/02/28 07:04:31;;;;;;;16.77;4.22;;;15.60;91.60;;;;;;5030488;28;20504;-59
2023/02/28 07:07:37;;;;;;;17.55;4.45;;;;;;;;;;5032025;28;20040;-63
2023/02/28 07:10:42;;;;;;;22.15;5.18;;;13.50;92.20;;;;;;5033717;28;20038;-61
2023/02/28 07:13:47;;;;;;;14.88;5.00;;;15.70;92.90;;;;;;5033739;28;20040;-62
2023/02/28 07:16:51;;;;;;;16.67;4.13;;;14.20;92.40;;;;;;5033888;28;20056;-62
2023/02/28 07:19:55;;;;;;;17.40;4.60;;;15.10;92.30;;;;;;5043762;28;20535;-60
2023/02/28 07:23:00;;;;;;;10.75;3.25;;;14.20;91.40;;;;;;5033046;28;20056;-60
2023/02/28 07:26:06;;;;;;;16.33;2.92;;;14.40;91.30;;;;;;5032083;28;20048;-62
2023/02/28 07:29:10;;;;;;;9.18;2.05;;;14.40;91.30;;;;;;5032454;28;20061;-61
2023/02/28 07:32:15;;;;;;;13.45;3.13;;;14.70;90.60;;;;;;5033125;28;20040;-58
2023/02/28 07:35:19;;;;;;;10.38;2.53;;;15.80;90.70;;;;;;5033198;28;20048;-60
2023/02/28 07:38:23;;;;;;;12.10;2.53;;;15.00;90.50;;;;;;5033615;28;20032;-59
2023/02/28 07:41:29;;;;;;;9.23;2.47;;;14.30;90.60;;;;;;5033500;28;20065;-59
2023/02/28 07:44:33;;;;;;;11.95;2.67;;;14.60;90.40;;;;;;5033342;28;20036;-59
2023/02/28 07:47:38;;;;;;;9.82;2.38;;;13.00;89.60;;;;;;5033364;28;20052;-59
2023/02/28 07:50:42;;;;;;;13.73;3.00;;;14.60;90.20;;;;;;5033285;28;20056;-58
2023/02/28 07:53:46;;;;;;;12.93;2.63;;;14.60;90.20;;;;;;5032897;28;20044;-60
2023/02/28 07:56:51;;;;;;;12.18;2.92;;;;;;;;;;5033099;28;20036;-60
2023/02/28 07:59:55;;;;;;;10.20;2.40;;;14.70;88.90;;;;;;5032824;28;20049;-59
2023/02/28 08:02:59;;;;;;;12.00;2.55;;;;;;;;;;5032810;28;20039;-59
2023/02/28 08:06:08;;;;;;;16.52;2.78;;;14.80;88.50;;;;;;5032864;28;20520;-60
2023/02/28 08:09:12;;;;;;;12.32;2.80;;;14.80;88.80;;;;;;5032689;28;20045;-60
2023/02/28 08:12:16;;;;;;;11.70;2.63;;;15.10;87.20;;;;;;5032030;28;20052;-62
2023/02/28 08:15:19;;;;;;;12.25;2.20;;;15.20;87.80;;;;;;5031879;28;20047;-62
2023/02/28 08:18:24;;;;;;;12.48;2.83;;;15.30;86.50;;;;;;5031715;28;20052;-62
2023/02/28 08:21:28;;;;;;;9.57;2.50;;;15.30;86.30;;;;;;5032572;28;20057;-63
2023/02/28 08:24:33;;;;;;;13.73;2.40;;;15.20;85.20;;;;;;5031843;28;20515;-61
2023/02/28 08:27:37;;;;;;;11.45;1.88;;;;;;;;;;5032840;28;20052;-60
2023/02/28 08:30:41;;;;;;;8.55;2.25;;;15.30;85.40;;;;;;5032581;28;20050;-61
2023/02/28 08:33:47;;;;;;;14.48;2.70;;;15.30;86.20;;;;;;5031718;28;20052;-61
2023/02/28 08:36:50;;;;;;;12.30;2.22;;;15.50;84.60;;;;;;5032563;28;20045;-61
2023/02/28 08:39:54;;;;;;;13.57;2.60;;;14.50;85.30;;;;;;5031915;28;20076;-60
2023/02/28 08:42:59;;;;;;;12.88;2.78;;;17.40;86.00;;;;;;5032481;28;20104;-60
2023/02/28 08:46:04;;;;;;;13.88;2.85;;;15.70;85.80;;;;;;5032043;28;20044;-60
2023/02/28 08:49:10;;;;;;;12.40;2.25;;;15.80;85.20;;;;;;5032118;28;20388;-61
2023/02/28 08:52:15;;;;;;;15.35;2.67;;;15.90;84.40;;;;;;5032234;28;20037;-60
2023/02/28 08:55:19;;;;;;;12.18;2.30;;;16.00;84.10;;;;;;5031958;28;20044;-60
2023/02/28 08:58:23;;;;;;;17.83;2.42;;;16.00;84.80;;;;;;5031838;28;20044;-61
2023/02/28 09:01:28;;;;;;;16.20;2.60;;;16.10;84.90;;;;;;5031770;28;20053;-61
2023/02/28 09:04:33;;;;;;;10.45;2.40;;;16.10;84.50;;;;;;5031568;28;20040;-60
2023/02/28 09:07:37;;;;;;;10.57;2.38;;;16.10;83.20;;;;;;5030922;28;20064;-63
2023/02/28 09:10:41;;;;;;;12.65;2.80;;;16.10;83.90;;;;;;5031203;28;20045;-61
2023/02/28 09:13:46;;;;;;;13.35;2.53;;;16.10;83.80;;;;;;5031570;28;20052;-62
2023/02/28 09:16:50;;;;;;;9.02;2.38;;;16.30;83.00;;;;;;5031346;28;20036;-61
2023/02/28 09:19:54;;;;;;;11.00;2.97;;;16.40;83.30;;;;;;5031090;28;20040;-61
2023/02/28 09:22:58;;;;;;;13.82;2.58;;;16.10;83.00;;;;;;5030744;28;20060;-61
2023/02/28 09:26:02;;;;;;;12.95;2.55;;;16.10;83.50;;;;;;5031431;28;20040;-62
2023/02/28 09:29:07;;;;;;;14.63;2.40;;;16.10;84.30;;;;;;5030249;28;20040;-61
2023/02/28 09:32:10;;;;;;;14.02;2.45;;;16.30;83.80;;;;;;5031255;28;20477;-61
2023/02/28 09:35:16;;;;;;;18.27;2.95;;;16.50;83.60;;;;;;5030302;28;20041;-60
2023/02/28 09:38:20;;;;;;;17.02;2.83;;;16.50;83.10;;;;;;5031363;28;20036;-61
2023/02/28 09:41:28;;;;;;;16.95;4.00;;;16.90;82.30;;;;;;5030137;28;20048;-61
2023/02/28 09:44:37;;;;;;;17.02;3.70;;;16.90;82.60;;;;;;5030189;28;20056;-61
2023/02/28 09:47:46;;;;;;;17.98;3.15;;;16.70;82.50;;;;;;5031187;28;20619;-61
2023/02/28 09:50:56;;;;;;;20.48;3.47;;;16.30;82.60;;;;;;5030598;28;20056;-61
2023/02/28 09:54:00;;;;;;;14.18;2.95;;;16.30;83.20;;;;;;5030762;28;20041;-60
2023/02/28 09:57:13;;;;;;;25.52;3.65;;;16.20;83.60;;;;;;5030830;28;20044;-60
2023/02/28 10:00:34;;;;;;;28.00;3.40;;;16.00;83.60;;;;;;5030492;28;20052;-61
2023/02/28 10:03:59;;;;;;;16.53;3.00;;;16.00;83.40;;;;;;5030975;28;20044;-61
2023/02/28 10:07:35;;;;;;;17.02;3.42;;;16.00;84.20;;;;;;5031002;28;20052;-61
2023/02/28 10:10:45;;;;;;;15.10;3.83;;;16.00;84.20;;;;;;5031828;28;20053;-61
2023/02/28 10:13:55;;;;;;;17.98;4.10;;;16.00;85.10;;;;;;5030588;28;20044;-61
2023/02/28 10:17:16;;;;;;;23.75;3.80;;;16.10;85.20;;;;;;5030904;28;20109;-62
2023/02/28 10:20:23;;;;;;;32.97;4.43;;;16.00;84.40;;;;;;5030495;28;20057;-61
2023/02/28 10:23:34;;;;;;;21.48;3.53;;;16.00;83.20;;;;;;5030400;28;20392;-61
2023/02/28 10:26:39;;;;;;;;;;;16.00;84.00;;;;;;5031021;28;20046;-62
2023/02/28 10:29:49;;;;;;;26.15;4.20;;;16.00;84.80;;;;;;5029575;28;19920;-61
2023/02/28 10:32:54;;;;;;;21.55;3.78;;;16.10;85.10;;;;;;5030509;28;20039;-62
2023/02/28 10:35:59;;;;;;;26.15;3.67;;;16.10;86.30;;;;;;5030404;28;20048;-60
2023/02/28 10:39:42;;;;;;;21.92;3.53;;;16.10;86.00;;;;;;5030431;28;20048;-61
2023/02/28 10:43:15;;;;;;;16.50;4.07;;;16.00;86.90;;;;;;5032704;28;20060;-60
2023/02/28 10:46:25;;;;;;;24.90;3.65;;;16.00;86.80;;;;;;5034191;28;20393;-60
2023/02/28 10:49:29;;;;;;;14.77;3.35;;;16.00;85.60;;;;;;5034210;28;20052;-61
2023/02/28 10:52:37;;;;;;;29.30;4.32;;;15.90;86.40;;;;;;5033992;28;20040;-61
2023/02/28 10:55:41;;;;;;;16.92;4.18;;;16.00;86.40;;;;;;5033458;28;20516;-61
2023/02/28 10:58:51;;;;;;;21.17;4.57;;;16.00;86.10;;;;;;5034224;28;20048;-60
2023/02/28 11:01:56;;;;;;;20.80;4.07;;;16.00;85.30;;;;;;5034266;28;20056;-60
2023/02/28 11:05:00;;;;;;;17.40;3.42;;;16.20;85.00;;;;;;5033782;28;20048;-60
2023/02/28 11:08:31;;;;;;;26.40;4.40;;;16.30;85.60;;;;;;5034006;28;20057;-61
2023/02/28 11:11:44;;;;;;;20.02;3.70;;;16.20;85.90;;;;;;5033474;28;20397;-60
2023/02/28 11:14:58;;;;;;;18.38;4.03;;;16.10;85.90;;;;;;5033760;28;20108;-61
2023/02/28 11:18:11;;;;;;;19.35;3.45;;;16.10;86.30;;;;;;5033919;28;20319;-61
2023/02/28 11:21:26;;;;;;;14.32;3.40;;;16.00;86.30;;;;;;5033584;28;20052;-61
2023/02/28 11:24:36;;;;;;;15.90;3.63;;;15.90;85.50;;;;;;5033798;28;20068;-61
2023/02/28 11:27:54;;;;;;;21.23;3.92;;;15.90;85.30;;;;;;5033516;28;20056;-60
2023/02/28 11:31:03;;;;;;;19.70;4.40;;;15.90;86.30;;;;;;5032528;28;20528;-60
2023/02/28 11:34:25;;;;;;;15.18;4.28;;;15.90;87.10;;;;;;5033743;28;20099;-59
2023/02/28 11:37:31;;;;;;;17.90;4.70;;;15.90;87.60;;;;;;5033477;28;20044;-59
2023/02/28 11:41:12;;;;;;;15.82;4.82;;;17.10;88.50;;;;;;5032931;28;20056;-60
2023/02/28 11:44:41;;;;;;;23.70;4.78;;;15.70;88.00;;;;;;5032771;28;20331;-61
2023/02/28 11:48:02;;;;;;;14.73;4.07;;;15.70;89.00;;;;;;5033349;28;20223;-61
2023/02/28 11:51:07;;;;;;;15.80;4.57;;;15.70;88.40;;;;;;5032819;28;20056;-60
2023/02/28 11:55:03;;;;;;;19.33;4.20;;;15.60;88.80;;;;;;5033375;28;20041;-62
2023/02/28 11:58:13;;;;;;;18.90;4.38;;;15.60;89.30;;;;;;5017842;28;20072;-60
2023/02/28 12:01:36;;;;;;;12.98;4.10;;;15.50;89.30;;;;;;5031708;28;20409;-60
2023/02/28 12:04:59;;;;;;;12.73;4.80;;;15.50;89.60;;;;;;5032794;28;20040;-59
2023/02/28 12:08:32;;;;;;;20.63;4.47;;;15.60;90.20;;;;;;5032469;28;20071;-60
2023/02/28 12:12:07;;;;;;;21.40;4.50;;;15.60;90.30;;;;;;5032343;28;20060;-60
2023/02/28 12:15:36;;;;;;;16.52;4.25;;;15.60;90.10;;;;;;5032754;28;20045;-60
2023/02/28 12:19:01;;;;;;;17.02;3.92;;;15.50;89.20;;;;;;5033121;28;20048;-59
2023/02/28 12:22:33;;;;;;;21.80;4.00;;;15.60;88.70;;;;;;5032311;28;20595;-61
2023/02/28 12:25:48;;;;;;;25.08;4.38;;;15.60;88.20;;;;;;5032500;28;20040;-60
2023/02/28 12:28:59;;;;;;;15.02;3.40;;;15.60;89.50;;;;;;5032292;28;20048;-60
2023/02/28 12:32:21;;;;;;;19.73;4.63;;;15.60;90.40;;;;;;5032344;28;20044;-59
2023/02/28 12:35:33;;;;;;;25.55;5.32;;;15.50;91.10;;;;;;5032524;28;20048;-60
2023/02/28 12:38:37;;;;;;;;;;;15.50;91.70;;;;;;5032857;28;20135;-61
2023/02/28 12:41:58;;;;;;;29.02;5.30;;;15.50;92.30;;;;;;5031876;28;19924;-60
2023/02/28 12:45:10;;;;;;;32.10;7.82;;;15.30;93.00;;;;;;5032181;28;20049;-60
2023/02/28 12:48:39;;;;;;;27.30;7.35;;;15.40;93.30;;;;;;5032390;28;20052;-61
2023/02/28 12:51:45;;;;;;;33.03;8.65;;;15.30;95.10;;;;;;5037386;28;20044;-60
2023/02/28 12:54:52;;;;;;;35.38;6.25;;;15.20;96.40;;;;;;5031923;28;20048;-60
2023/02/28 12:57:59;;;;;;;31.73;5.38;;;14.80;96.90;;;;;;5031887;28;20044;-60
2023/02/28 13:01:27;;;;;;;28.92;7.15;;;14.50;96.70;;;;;;5030672;28;20056;-59
2023/02/28 13:04:53;;;;;;;26.08;7.15;;;14.50;96.60;;;;;;5031330;28;20052;-61
2023/02/28 13:08:36;;;;;;;23.95;7.13;;;14.50;96.80;;;;;;5031150;28;20513;-59
2023/02/28 13:11:41;;;;;;;26.45;7.45;;;14.40;97.00;;;;;;5031553;28;20044;-60
2023/02/28 13:14:45;;;;;;;24.27;7.88;;;14.20;97.30;;;;;;5031805;28;20048;-60
2023/02/28 13:18:00;;;;;;;29.42;8.85;;;14.60;97.60;;;;;;5030549;28;20060;-60
2023/02/28 13:21:21;;;;;;;29.00;7.95;;;14.60;97.90;;;;;;5031226;28;20052;-59
2023/02/28 13:24:45;;;;;;;23.42;9.55;;;14.60;98.30;;;;;;5031220;28;20401;-60
2023/02/28 13:27:56;;;;;;;21.67;7.40;;;14.50;97.50;;;;;;5030066;28;20052;-62
2023/02/28 13:31:04;;;;;;;23.48;7.22;;;14.40;96.20;;;;;;5031206;28;20045;-61
2023/02/28 13:34:15;;;;;;;20.67;7.78;;;14.50;96.40;;;;;;5031510;28;20151;-61
2023/02/28 13:37:25;;;;;;;17.80;6.63;;;14.40;96.10;;;;;;5031494;28;20045;-61
2023/02/28 13:40:37;;;;;;;19.25;6.53;;;12.30;95.70;;;;;;5031025;28;20072;-59
2023/02/28 13:44:07;;;;;;;22.00;6.32;;;14.50;96.60;;;;;;5031154;28;20513;-61
2023/02/28 13:47:24;;;;;;;21.67;7.60;;;14.50;96.50;;;;;;5031218;28;20044;-60
2023/02/28 13:50:37;;;;;;;25.27;7.25;;;14.60;97.00;;;;;;5030852;28;20044;-60
2023/02/28 13:54:06;;;;;;;25.15;9.18;;;13.90;97.80;;;;;;5030973;28;20053;-60
2023/02/28 13:57:41;;;;;;;22.15;8.77;;;14.50;97.60;;;;;;5031202;28;20041;-61
2023/02/28 14:01:04;;;;;;;22.85;8.95;;;14.60;98.30;;;;;;5030868;28;20052;-63
2023/02/28 14:04:46;;;;;;;18.25;7.80;;;14.60;97.70;;;;;;5028552;28;20037;-61
2023/02/28 14:07:56;;;;;;;25.27;8.73;;;15.70;97.60;;;;;;5029987;28;20389;-60
2023/02/28 14:11:09;;;;;;;31.65;9.75;;;14.50;97.70;;;;;;5029975;28;20049;-60
2023/02/28 14:14:35;;;;;;;30.13;8.55;;;14.30;97.60;;;;;;5030508;28;20064;-60
2023/02/28 14:17:41;;;;;;;27.95;8.27;;;14.40;97.50;;;;;;5032740;28;20045;-61
2023/02/28 14:20:47;;;;;;;32.13;6.35;;;15.30;97.80;;;;;;5034393;28;20045;-60
2023/02/28 14:24:22;;;;;;;31.70;9.27;;;14.40;98.10;;;;;;5033697;28;20048;-60
2023/02/28 14:27:45;;;;;;;35.20;8.02;;;14.20;98.50;;;;;;5033772;28;20052;-62
2023/02/28 14:31:09;;;;;;;25.85;6.40;;;14.30;98.70;;;;;;5034838;28;20049;-61
2023/02/28 14:34:36;;;;;;;24.10;7.53;;;14.60;99.10;;;;;;5034660;28;20048;-60
2023/02/28 14:37:42;;;;;;;28.45;7.28;;;14.00;99.20;;;;;;5034858;28;20054;-63
2023/02/28 14:40:49;;;;;;;17.50;6.82;;;14.00;99.50;;;;;;5033790;28;20529;-61
2023/02/28 14:43:56;;;;;;;26.45;8.18;;;15.70;99.90;;;;;;5034506;28;20120;-62
2023/02/28 14:47:05;;;;;;;20.70;7.28;;;14.00;99.90;;;;;;5034391;28;20154;-60
2023/02/28 14:50:29;;;;;;;30.05;7.97;;;16.30;99.90;;;;;;5034631;28;20044;-62
2023/02/28 14:53:37;;;;;;;22.98;7.75;;;14.00;99.90;;;;;;5034246;28;20052;-60
2023/02/28 14:56:41;;;;;;;26.27;8.82;;;;;;;;;;5034143;28;20040;-60
2023/02/28 14:59:45;;;;;;;22.60;8.85;;;13.80;99.90;;;;;;5034253;28;20489;-61
2023/02/28 15:02:49;;;;;;;26.45;9.50;;;14.00;99.90;;;;;;5034317;28;20378;-60
2023/02/28 15:05:56;;;;;;;33.97;13.43;;;13.70;99.90;;;;;;5033833;28;20045;-60
2023/02/28 15:09:18;;;;;;;39.83;14.05;;;14.80;99.90;;;;;;5033728;28;20045;-60
2023/02/28 15:12:23;;;;;;;32.28;14.65;;;;;;;;;;5033987;28;20056;-60
2023/02/28 15:15:41;;;;;;;34.88;11.88;;;13.10;99.90;;;;;;5033483;28;20044;-61
2023/02/28 15:18:52;;;;;;;34.03;12.40;;;13.20;99.90;;;;;;5033563;28;20064;-60
2023/02/28 15:22:28;;;;;;;33.17;13.02;;;13.30;99.90;;;;;;5033107;28;20070;-59
2023/02/28 15:25:33;;;;;;;29.77;10.40;;;;;;;;;;5033448;28;20053;-60
2023/02/28 15:28:37;;;;;;;42.10;17.90;;;;;;;;;;5032932;28;20504;-59
2023/02/28 15:31:48;;;;;;;30.38;12.35;;;14.20;99.90;;;;;;5033570;28;20068;-60
2023/02/28 15:34:54;;;;;;;27.55;11.75;;;;;;;;;;5033412;28;20045;-60
2023/02/28 15:38:12;;;;;;;41.75;16.85;;;13.80;99.90;;;;;;5033408;28;20074;-60
2023/02/28 15:41:37;;;;;;;37.50;14.82;;;13.10;99.90;;;;;;5033039;28;20052;-60
2023/02/28 15:44:41;;;;;;;47.40;19.15;;;;;;;;;;5033461;28;20397;-60
2023/02/28 15:47:47;;;;;;;40.55;15.82;;;13.00;99.90;;;;;;5033212;28;20041;-60
2023/02/28 15:50:58;;;;;;;39.10;17.58;;;12.80;99.90;;;;;;5033004;28;20045;-59
2023/02/28 15:54:07;;;;;;;48.20;22.23;;;12.70;99.90;;;;;;5033059;28;20044;-59
2023/02/28 15:57:24;;;;;;;49.15;19.65;;;13.80;99.90;;;;;;5033218;28;20064;-59
2023/02/28 16:00:30;;;;;;;40.40;20.55;;;12.50;99.90;;;;;;5032641;28;20056;-60
2023/02/28 16:03:52;;;;;;;44.47;19.02;;;13.20;99.90;;;;;;5032997;28;20065;-60
2023/02/28 16:07:18;;;;;;;41.95;19.67;;;12.50;99.90;;;;;;5032989;28;20060;-59
2023/02/28 16:10:25;;;;;;;38.13;18.30;;;12.40;99.90;;;;;;5032864;28;20040;-61
2023/02/28 16:13:29;;;;;;;40.20;16.75;;;12.60;99.90;;;;;;5032393;28;20044;-60
2023/02/28 16:16:33;;;;;;;40.65;17.10;;;12.60;99.90;;;;;;5032241;28;20068;-60
2023/02/28 16:19:38;;;;;;;36.92;16.88;;;;;;;;;;5019937;28;20049;-62
2023/02/28 16:22:43;;;;;;;33.38;14.63;;;;;;;;;;5032196;28;20192;-61
2023/02/28 16:25:47;;;;;;;37.30;14.88;;;12.70;99.90;;;;;;5032238;28;20112;-61
2023/02/28 16:28:51;;;;;;;46.22;15.82;;;12.40;99.90;;;;;;5032364;28;20040;-61